Terminal Aerodrome Forecast
Issued by NWS

Current Version | Previous Version | Text Only | Print | Product List | Glossary On
Versions: 1 2 3 4 5 6 7 8 9 10 11 12
000
FTUS45 KGJT 250543
TAFVEL
TAF
KVEL 250543Z 2506/2606 26015G25KT P6SM VCSH BKN100
     FM250800 29005KT P6SM VCSH BKN090
     FM251500 13005KT P6SM VCSH BKN070
     FM251900 24013G21KT P6SM VCTS BKN090CB
     FM252100 27015G26KT P6SM VCTS BKN100CB
     FM260200 02006KT P6SM BKN090=

USA.gov is the U.S. government's official web portal to all federal, state and local government web resources and services.